createdAt,value
2019-04-14T00:05:08.300Z,1006.92
2019-04-14T00:11:08.349Z,1006.84
2019-04-14T00:17:08.749Z,1006.76
2019-04-14T00:23:08.767Z,1006.72
2019-04-14T00:29:08.953Z,1006.63
2019-04-14T00:35:08.293Z,1006.59
2019-04-14T00:41:09.314Z,1006.57
2019-04-14T00:47:09.050Z,1006.51
2019-04-14T00:53:08.197Z,1006.53
2019-04-14T00:59:09.318Z,1006.49
2019-04-14T01:05:08.938Z,1006.45
2019-04-14T01:11:09.462Z,1006.51
2019-04-14T01:17:09.063Z,1006.56
2019-04-14T01:23:08.445Z,1006.58
2019-04-14T01:29:08.100Z,1006.53
2019-04-14T01:35:08.166Z,1006.55
2019-04-14T01:41:08.561Z,1006.52
2019-04-14T01:47:08.113Z,1006.57
2019-04-14T01:53:08.233Z,1006.56
2019-04-14T01:59:08.701Z,1006.50
2019-04-14T02:05:08.243Z,1006.57
2019-04-14T02:11:09.384Z,1006.61
2019-04-14T02:17:09.419Z,1006.59
2019-04-14T02:23:08.349Z,1006.62
2019-04-14T02:29:09.925Z,1006.60
2019-04-14T02:35:40.960Z,1006.68
2019-04-14T02:41:35.774Z,1006.63
2019-04-14T02:47:53.822Z,1006.58
2019-04-14T02:53:44.234Z,1006.64
2019-04-14T02:59:38.479Z,1006.62
2019-04-14T03:05:34.308Z,1006.68
2019-04-14T03:11:33.808Z,1006.63
2019-04-14T03:17:39.126Z,1006.68
2019-04-14T03:29:29.195Z,1006.52
2019-04-14T03:41:31.544Z,1006.63
2019-04-14T03:47:31.004Z,1006.61
2019-04-14T03:53:32.525Z,1006.60
2019-04-14T03:59:08.511Z,1006.64
2019-04-14T04:05:08.527Z,1006.65
2019-04-14T04:11:08.451Z,1006.55
2019-04-14T04:17:08.190Z,1006.82
2019-04-14T04:23:09.440Z,1006.77
2019-04-14T04:29:09.146Z,1006.82
2019-04-14T04:35:08.580Z,1006.84
2019-04-14T04:41:08.172Z,1006.82
2019-04-14T04:47:08.166Z,1006.92
2019-04-14T04:53:09.061Z,1007.07
2019-04-14T04:59:08.204Z,1007.11
2019-04-14T05:05:08.216Z,1007.08
2019-04-14T05:11:08.276Z,1007.15
2019-04-14T05:17:08.175Z,1007.15
2019-04-14T05:23:08.195Z,1007.11
2019-04-14T05:29:08.192Z,1007.07
2019-04-14T05:35:09.471Z,1007.12
2019-04-14T05:41:09.119Z,1007.24
2019-04-14T05:47:08.688Z,1007.28
2019-04-14T05:53:08.679Z,1007.38
2019-04-14T05:59:08.857Z,1007.39
2019-04-14T06:05:09.116Z,1007.48
2019-04-14T06:11:08.242Z,1007.48
2019-04-14T23:37:37.254Z,1011.41
2019-04-14T23:43:37.393Z,1011.52
2019-04-14T23:49:37.345Z,1011.56
2019-04-14T23:55:37.306Z,1011.49
